sensor_id;sensor_type;location;lat;lon;timestamp;temperature;humidity
76172;DHT22;64929;51.178;4.138;2023-02-28T00:01:26;3.20;66.00
76172;DHT22;64929;51.178;4.138;2023-02-28T00:03:52;3.10;67.10
76172;DHT22;64929;51.178;4.138;2023-02-28T00:06:17;3.00;67.30
76172;DHT22;64929;51.178;4.138;2023-02-28T00:08:43;2.90;66.80
76172;DHT22;64929;51.178;4.138;2023-02-28T00:11:12;2.90;67.10
76172;DHT22;64929;51.178;4.138;2023-02-28T00:13:41;2.80;67.80
76172;DHT22;64929;51.178;4.138;2023-02-28T00:16:10;2.60;68.20
76172;DHT22;64929;51.178;4.138;2023-02-28T00:18:36;2.60;68.60
76172;DHT22;64929;51.178;4.138;2023-02-28T00:21:02;2.50;68.70
76172;DHT22;64929;51.178;4.138;2023-02-28T00:23:28;2.60;68.40
76172;DHT22;64929;51.178;4.138;2023-02-28T00:25:54;2.70;68.40
76172;DHT22;64929;51.178;4.138;2023-02-28T00:28:20;2.90;67.60
76172;DHT22;64929;51.178;4.138;2023-02-28T00:30:46;2.90;67.90
76172;DHT22;64929;51.178;4.138;2023-02-28T00:33:12;2.90;68.10
76172;DHT22;64929;51.178;4.138;2023-02-28T00:35:38;2.90;68.00
76172;DHT22;64929;51.178;4.138;2023-02-28T00:38:04;2.90;67.80
76172;DHT22;64929;51.178;4.138;2023-02-28T00:40:29;2.90;67.90
76172;DHT22;64929;51.178;4.138;2023-02-28T00:42:58;2.90;67.70
76172;DHT22;64929;51.178;4.138;2023-02-28T00:45:25;3.00;67.40
76172;DHT22;64929;51.178;4.138;2023-02-28T00:47:51;2.80;67.90
76172;DHT22;64929;51.178;4.138;2023-02-28T00:50:18;2.70;68.60
76172;DHT22;64929;51.178;4.138;2023-02-28T00:52:45;2.60;68.80
76172;DHT22;64929;51.178;4.138;2023-02-28T00:55:11;2.70;68.40
76172;DHT22;64929;51.178;4.138;2023-02-28T00:57:37;2.80;68.40
76172;DHT22;64929;51.178;4.138;2023-02-28T01:00:03;2.60;68.60
76172;DHT22;64929;51.178;4.138;2023-02-28T01:02:29;2.70;69.00
76172;DHT22;64929;51.178;4.138;2023-02-28T01:04:55;2.40;69.60
76172;DHT22;64929;51.178;4.138;2023-02-28T01:07:22;2.30;70.20
76172;DHT22;64929;51.178;4.138;2023-02-28T01:09:48;2.40;69.40
76172;DHT22;64929;51.178;4.138;2023-02-28T01:12:14;2.40;68.90
76172;DHT22;64929;51.178;4.138;2023-02-28T01:14:40;2.30;69.50
76172;DHT22;64929;51.178;4.138;2023-02-28T01:17:05;2.30;69.40
76172;DHT22;64929;51.178;4.138;2023-02-28T01:19:31;2.40;69.90
76172;DHT22;64929;51.178;4.138;2023-02-28T01:22:00;2.30;70.30
76172;DHT22;64929;51.178;4.138;2023-02-28T01:24:25;2.20;70.90
76172;DHT22;64929;51.178;4.138;2023-02-28T01:26:51;2.10;71.20
76172;DHT22;64929;51.178;4.138;2023-02-28T01:29:17;2.00;71.60
76172;DHT22;64929;51.178;4.138;2023-02-28T01:31:42;2.20;71.80
76172;DHT22;64929;51.178;4.138;2023-02-28T01:34:08;2.00;71.50
76172;DHT22;64929;51.178;4.138;2023-02-28T01:36:33;2.00;71.50
76172;DHT22;64929;51.178;4.138;2023-02-28T01:38:59;1.80;71.80
76172;DHT22;64929;51.178;4.138;2023-02-28T01:41:27;1.80;72.50
76172;DHT22;64929;51.178;4.138;2023-02-28T01:44:02;1.80;72.00
76172;DHT22;64929;51.178;4.138;2023-02-28T01:46:32;1.90;71.80
76172;DHT22;64929;51.178;4.138;2023-02-28T01:49:08;2.00;71.80
76172;DHT22;64929;51.178;4.138;2023-02-28T01:51:42;1.90;72.10
76172;DHT22;64929;51.178;4.138;2023-02-28T01:54:20;1.90;72.30
76172;DHT22;64929;51.178;4.138;2023-02-28T01:56:50;2.00;71.50
76172;DHT22;64929;51.178;4.138;2023-02-28T01:59:29;2.00;71.40
76172;DHT22;64929;51.178;4.138;2023-02-28T02:01:58;1.80;71.90
76172;DHT22;64929;51.178;4.138;2023-02-28T02:04:34;2.00;71.90
76172;DHT22;64929;51.178;4.138;2023-02-28T02:07:03;2.00;71.60
76172;DHT22;64929;51.178;4.138;2023-02-28T02:09:28;2.10;71.70
76172;DHT22;64929;51.178;4.138;2023-02-28T02:11:55;2.00;71.50
76172;DHT22;64929;51.178;4.138;2023-02-28T02:14:35;2.00;71.20
76172;DHT22;64929;51.178;4.138;2023-02-28T02:17:12;2.10;71.50
76172;DHT22;64929;51.178;4.138;2023-02-28T02:19:51;2.00;71.50
76172;DHT22;64929;51.178;4.138;2023-02-28T02:36:00;1.80;72.10
76172;DHT22;64929;51.178;4.138;2023-02-28T02:39:01;1.80;72.10
76172;DHT22;64929;51.178;4.138;2023-02-28T02:41:36;1.80;72.40
76172;DHT22;64929;51.178;4.138;2023-02-28T02:44:23;1.90;72.00
76172;DHT22;64929;51.178;4.138;2023-02-28T02:46:52;1.80;72.40
76172;DHT22;64929;51.178;4.138;2023-02-28T02:49:30;1.90;72.30
76172;DHT22;64929;51.178;4.138;2023-02-28T02:52:00;1.80;72.10
76172;DHT22;64929;51.178;4.138;2023-02-28T02:54:28;1.90;72.50
76172;DHT22;64929;51.178;4.138;2023-02-28T02:56:59;2.00;72.30
76172;DHT22;64929;51.178;4.138;2023-02-28T02:59:26;2.00;71.70
76172;DHT22;64929;51.178;4.138;2023-02-28T03:01:56;2.10;71.30
76172;DHT22;64929;51.178;4.138;2023-02-28T03:04:24;2.20;71.00
76172;DHT22;64929;51.178;4.138;2023-02-28T03:06:52;2.20;71.00
76172;DHT22;64929;51.178;4.138;2023-02-28T03:09:22;2.10;71.30
76172;DHT22;64929;51.178;4.138;2023-02-28T03:11:49;2.10;71.50
76172;DHT22;64929;51.178;4.138;2023-02-28T03:25:19;2.50;70.80
76172;DHT22;64929;51.178;4.138;2023-02-28T03:30:57;2.40;70.60
76172;DHT22;64929;51.178;4.138;2023-02-28T03:33:30;2.50;70.30
76172;DHT22;64929;51.178;4.138;2023-02-28T03:36:06;2.50;70.10
76172;DHT22;64929;51.178;4.138;2023-02-28T03:38:47;2.60;69.80
76172;DHT22;64929;51.178;4.138;2023-02-28T03:41:19;2.70;69.90
76172;DHT22;64929;51.178;4.138;2023-02-28T03:44:03;2.80;70.00
76172;DHT22;64929;51.178;4.138;2023-02-28T03:46:32;2.80;69.90
76172;DHT22;64929;51.178;4.138;2023-02-28T03:49:22;2.70;70.10
76172;DHT22;64929;51.178;4.138;2023-02-28T03:51:49;2.80;70.20
76172;DHT22;64929;51.178;4.138;2023-02-28T03:54:21;2.80;70.30
76172;DHT22;64929;51.178;4.138;2023-02-28T03:57:00;2.80;70.40
76172;DHT22;64929;51.178;4.138;2023-02-28T03:59:44;2.80;70.60
76172;DHT22;64929;51.178;4.138;2023-02-28T04:02:12;2.90;70.40
76172;DHT22;64929;51.178;4.138;2023-02-28T04:04:38;2.90;71.50
76172;DHT22;64929;51.178;4.138;2023-02-28T04:07:08;2.90;71.00
76172;DHT22;64929;51.178;4.138;2023-02-28T04:09:34;3.10;70.60
76172;DHT22;64929;51.178;4.138;2023-02-28T04:12:00;3.10;70.20
76172;DHT22;64929;51.178;4.138;2023-02-28T04:14:26;3.00;70.00
76172;DHT22;64929;51.178;4.138;2023-02-28T04:16:51;2.90;70.00
76172;DHT22;64929;51.178;4.138;2023-02-28T04:19:18;2.90;70.10
76172;DHT22;64929;51.178;4.138;2023-02-28T04:21:48;3.10;69.60
76172;DHT22;64929;51.178;4.138;2023-02-28T04:24:20;3.20;69.40
76172;DHT22;64929;51.178;4.138;2023-02-28T04:26:48;3.20;69.60
76172;DHT22;64929;51.178;4.138;2023-02-28T04:29:23;3.20;69.70
76172;DHT22;64929;51.178;4.138;2023-02-28T04:31:49;3.20;70.00
76172;DHT22;64929;51.178;4.138;2023-02-28T04:34:16;3.30;69.90
76172;DHT22;64929;51.178;4.138;2023-02-28T04:36:42;3.40;69.40
76172;DHT22;64929;51.178;4.138;2023-02-28T04:39:08;3.30;69.90
76172;DHT22;64929;51.178;4.138;2023-02-28T04:41:35;3.20;70.40
76172;DHT22;64929;51.178;4.138;2023-02-28T04:44:00;3.30;69.60
76172;DHT22;64929;51.178;4.138;2023-02-28T04:46:26;3.40;70.10
76172;DHT22;64929;51.178;4.138;2023-02-28T04:48:52;3.50;70.00
76172;DHT22;64929;51.178;4.138;2023-02-28T04:51:19;3.60;69.10
76172;DHT22;64929;51.178;4.138;2023-02-28T04:53:45;3.40;69.60
76172;DHT22;64929;51.178;4.138;2023-02-28T04:56:13;3.50;69.80
76172;DHT22;64929;51.178;4.138;2023-02-28T04:58:39;3.50;69.40
76172;DHT22;64929;51.178;4.138;2023-02-28T05:01:14;3.40;70.20
76172;DHT22;64929;51.178;4.138;2023-02-28T05:03:42;3.40;70.70
76172;DHT22;64929;51.178;4.138;2023-02-28T05:06:09;3.50;70.40
76172;DHT22;64929;51.178;4.138;2023-02-28T05:08:34;3.40;71.20
76172;DHT22;64929;51.178;4.138;2023-02-28T05:11:01;3.30;70.90
76172;DHT22;64929;51.178;4.138;2023-02-28T05:13:27;3.40;71.30
76172;DHT22;64929;51.178;4.138;2023-02-28T05:15:53;3.50;71.00
76172;DHT22;64929;51.178;4.138;2023-02-28T05:18:19;3.40;71.10
76172;DHT22;64929;51.178;4.138;2023-02-28T05:20:45;3.30;71.50
76172;DHT22;64929;51.178;4.138;2023-02-28T05:23:12;3.40;71.50
76172;DHT22;64929;51.178;4.138;2023-02-28T05:25:38;3.40;71.40
76172;DHT22;64929;51.178;4.138;2023-02-28T05:28:04;3.50;71.30
76172;DHT22;64929;51.178;4.138;2023-02-28T05:30:30;3.60;71.20
76172;DHT22;64929;51.178;4.138;2023-02-28T05:32:57;3.60;71.00
76172;DHT22;64929;51.178;4.138;2023-02-28T05:35:23;3.60;70.80
76172;DHT22;64929;51.178;4.138;2023-02-28T05:37:49;3.60;70.70
76172;DHT22;64929;51.178;4.138;2023-02-28T05:40:15;3.60;70.90
76172;DHT22;64929;51.178;4.138;2023-02-28T05:42:42;3.50;71.10
76172;DHT22;64929;51.178;4.138;2023-02-28T05:45:08;3.60;70.80
76172;DHT22;64929;51.178;4.138;2023-02-28T05:47:35;3.60;70.80
76172;DHT22;64929;51.178;4.138;2023-02-28T05:50:01;3.60;71.00
76172;DHT22;64929;51.178;4.138;2023-02-28T05:52:28;3.60;71.00
76172;DHT22;64929;51.178;4.138;2023-02-28T05:54:55;3.60;70.30
76172;DHT22;64929;51.178;4.138;2023-02-28T05:57:22;3.60;70.30
76172;DHT22;64929;51.178;4.138;2023-02-28T05:59:48;3.70;70.00
76172;DHT22;64929;51.178;4.138;2023-02-28T06:02:15;3.70;70.40
76172;DHT22;64929;51.178;4.138;2023-02-28T06:04:41;3.70;70.20
76172;DHT22;64929;51.178;4.138;2023-02-28T06:07:08;3.80;69.80
76172;DHT22;64929;51.178;4.138;2023-02-28T06:09:34;3.70;70.40
76172;DHT22;64929;51.178;4.138;2023-02-28T06:12:01;3.70;70.20
76172;DHT22;64929;51.178;4.138;2023-02-28T06:14:29;3.80;70.10
76172;DHT22;64929;51.178;4.138;2023-02-28T06:16:56;3.80;70.20
76172;DHT22;64929;51.178;4.138;2023-02-28T06:19:22;3.70;70.10
76172;DHT22;64929;51.178;4.138;2023-02-28T06:21:51;3.70;70.10
76172;DHT22;64929;51.178;4.138;2023-02-28T06:24:21;3.80;70.30
76172;DHT22;64929;51.178;4.138;2023-02-28T06:26:47;3.90;69.90
76172;DHT22;64929;51.178;4.138;2023-02-28T06:29:14;3.80;70.80
76172;DHT22;64929;51.178;4.138;2023-02-28T06:31:44;3.90;69.70
76172;DHT22;64929;51.178;4.138;2023-02-28T06:34:10;4.00;69.10
76172;DHT22;64929;51.178;4.138;2023-02-28T06:36:38;4.10;68.70
76172;DHT22;64929;51.178;4.138;2023-02-28T06:39:04;4.10;69.40
76172;DHT22;64929;51.178;4.138;2023-02-28T06:41:29;4.10;69.00
76172;DHT22;64929;51.178;4.138;2023-02-28T06:43:55;4.00;69.40
76172;DHT22;64929;51.178;4.138;2023-02-28T06:46:21;3.90;69.10
76172;DHT22;64929;51.178;4.138;2023-02-28T06:48:47;3.90;68.20
76172;DHT22;64929;51.178;4.138;2023-02-28T06:51:15;3.90;68.20
76172;DHT22;64929;51.178;4.138;2023-02-28T06:53:41;4.00;68.40
76172;DHT22;64929;51.178;4.138;2023-02-28T06:56:15;4.10;67.80
76172;DHT22;64929;51.178;4.138;2023-02-28T06:58:41;4.10;67.50
76172;DHT22;64929;51.178;4.138;2023-02-28T07:01:07;4.10;67.40
76172;DHT22;64929;51.178;4.138;2023-02-28T07:03:35;4.10;67.30
76172;DHT22;64929;51.178;4.138;2023-02-28T07:06:01;4.10;67.10
76172;DHT22;64929;51.178;4.138;2023-02-28T07:08:27;4.20;66.70
76172;DHT22;64929;51.178;4.138;2023-02-28T07:10:54;4.10;66.60
76172;DHT22;64929;51.178;4.138;2023-02-28T07:13:20;4.20;66.30
76172;DHT22;64929;51.178;4.138;2023-02-28T07:16:04;4.10;66.40
76172;DHT22;64929;51.178;4.138;2023-02-28T07:18:31;4.30;66.50
76172;DHT22;64929;51.178;4.138;2023-02-28T07:20:57;4.30;66.30
76172;DHT22;64929;51.178;4.138;2023-02-28T07:23:23;4.30;66.70
76172;DHT22;64929;51.178;4.138;2023-02-28T07:25:50;4.30;67.10
76172;DHT22;64929;51.178;4.138;2023-02-28T07:28:16;4.30;67.10
76172;DHT22;64929;51.178;4.138;2023-02-28T07:30:41;4.50;66.60
76172;DHT22;64929;51.178;4.138;2023-02-28T07:33:07;4.60;66.30
76172;DHT22;64929;51.178;4.138;2023-02-28T07:35:33;4.50;66.40
76172;DHT22;64929;51.178;4.138;2023-02-28T07:38:00;4.40;66.50
76172;DHT22;64929;51.178;4.138;2023-02-28T07:40:26;4.60;66.70
76172;DHT22;64929;51.178;4.138;2023-02-28T07:42:52;4.70;66.40
76172;DHT22;64929;51.178;4.138;2023-02-28T07:45:18;4.70;66.30
76172;DHT22;64929;51.178;4.138;2023-02-28T07:47:45;4.60;66.80
76172;DHT22;64929;51.178;4.138;2023-02-28T07:50:13;4.60;66.10
76172;DHT22;64929;51.178;4.138;2023-02-28T07:52:39;4.70;66.40
76172;DHT22;64929;51.178;4.138;2023-02-28T07:55:07;4.80;66.20
76172;DHT22;64929;51.178;4.138;2023-02-28T07:57:33;4.70;66.40
76172;DHT22;64929;51.178;4.138;2023-02-28T07:59:59;4.60;66.40
76172;DHT22;64929;51.178;4.138;2023-02-28T08:02:25;4.60;66.80
76172;DHT22;64929;51.178;4.138;2023-02-28T08:04:50;4.80;66.30
76172;DHT22;64929;51.178;4.138;2023-02-28T08:07:17;4.70;66.80
76172;DHT22;64929;51.178;4.138;2023-02-28T08:09:44;4.90;66.70
76172;DHT22;64929;51.178;4.138;2023-02-28T08:12:10;4.90;66.00
76172;DHT22;64929;51.178;4.138;2023-02-28T08:14:37;4.80;66.40
76172;DHT22;64929;51.178;4.138;2023-02-28T08:17:03;4.90;65.90
76172;DHT22;64929;51.178;4.138;2023-02-28T08:19:29;4.90;65.70
76172;DHT22;64929;51.178;4.138;2023-02-28T08:21:55;5.00;65.90
76172;DHT22;64929;51.178;4.138;2023-02-28T08:24:21;5.10;65.60
76172;DHT22;64929;51.178;4.138;2023-02-28T08:26:47;5.10;65.60
76172;DHT22;64929;51.178;4.138;2023-02-28T08:29:13;5.20;65.50
76172;DHT22;64929;51.178;4.138;2023-02-28T08:31:38;5.20;65.80
76172;DHT22;64929;51.178;4.138;2023-02-28T08:34:13;5.30;64.80
76172;DHT22;64929;51.178;4.138;2023-02-28T08:36:39;5.40;63.00
76172;DHT22;64929;51.178;4.138;2023-02-28T08:39:05;5.30;59.40
76172;DHT22;64929;51.178;4.138;2023-02-28T08:41:31;5.10;59.30
76172;DHT22;64929;51.178;4.138;2023-02-28T08:43:57;5.20;58.00
76172;DHT22;64929;51.178;4.138;2023-02-28T08:46:23;5.10;56.40
76172;DHT22;64929;51.178;4.138;2023-02-28T08:48:52;5.00;57.70
76172;DHT22;64929;51.178;4.138;2023-02-28T08:51:19;4.90;56.80
76172;DHT22;64929;51.178;4.138;2023-02-28T08:53:52;4.90;56.90
76172;DHT22;64929;51.178;4.138;2023-02-28T08:56:18;5.00;55.80
76172;DHT22;64929;51.178;4.138;2023-02-28T08:58:45;4.90;55.80
76172;DHT22;64929;51.178;4.138;2023-02-28T09:01:26;4.80;55.80
76172;DHT22;64929;51.178;4.138;2023-02-28T09:03:53;4.70;55.80
76172;DHT22;64929;51.178;4.138;2023-02-28T09:06:21;4.70;55.00
76172;DHT22;64929;51.178;4.138;2023-02-28T09:08:48;4.80;55.90
76172;DHT22;64929;51.178;4.138;2023-02-28T09:11:14;5.00;54.80
76172;DHT22;64929;51.178;4.138;2023-02-28T09:13:40;5.10;53.40
76172;DHT22;64929;51.178;4.138;2023-02-28T09:16:08;5.00;52.90
76172;DHT22;64929;51.178;4.138;2023-02-28T09:18:36;5.10;52.80
76172;DHT22;64929;51.178;4.138;2023-02-28T09:21:12;5.20;50.90
76172;DHT22;64929;51.178;4.138;2023-02-28T09:23:43;5.20;51.80
76172;DHT22;64929;51.178;4.138;2023-02-28T09:26:23;5.40;51.00
76172;DHT22;64929;51.178;4.138;2023-02-28T09:28:50;5.40;51.20
76172;DHT22;64929;51.178;4.138;2023-02-28T09:31:18;5.40;49.20
76172;DHT22;64929;51.178;4.138;2023-02-28T09:33:46;5.20;49.20
76172;DHT22;64929;51.178;4.138;2023-02-28T09:36:12;5.40;51.20
76172;DHT22;64929;51.178;4.138;2023-02-28T09:38:38;5.60;48.70
76172;DHT22;64929;51.178;4.138;2023-02-28T09:41:11;5.80;48.10
76172;DHT22;64929;51.178;4.138;2023-02-28T09:43:42;5.80;47.40
76172;DHT22;64929;51.178;4.138;2023-02-28T09:46:32;5.60;45.10
76172;DHT22;64929;51.178;4.138;2023-02-28T09:49:01;5.60;45.40
76172;DHT22;64929;51.178;4.138;2023-02-28T09:54:15;5.60;43.60
76172;DHT22;64929;51.178;4.138;2023-02-28T09:56:53;5.50;45.00
76172;DHT22;64929;51.178;4.138;2023-02-28T09:59:35;5.60;44.50
76172;DHT22;64929;51.178;4.138;2023-02-28T10:02:38;5.50;44.70
76172;DHT22;64929;51.178;4.138;2023-02-28T10:05:15;5.40;45.90
76172;DHT22;64929;51.178;4.138;2023-02-28T10:10:49;5.70;45.90
76172;DHT22;64929;51.178;4.138;2023-02-28T10:13:51;5.80;46.00
76172;DHT22;64929;51.178;4.138;2023-02-28T10:16:25;5.80;45.40
76172;DHT22;64929;51.178;4.138;2023-02-28T10:21:39;6.00;45.70
76172;DHT22;64929;51.178;4.138;2023-02-28T10:24:35;6.10;45.70
76172;DHT22;64929;51.178;4.138;2023-02-28T10:27:12;6.00;45.70
76172;DHT22;64929;51.178;4.138;2023-02-28T10:29:42;6.20;45.10
76172;DHT22;64929;51.178;4.138;2023-02-28T10:32:12;6.20;45.20
76172;DHT22;64929;51.178;4.138;2023-02-28T10:34:40;6.30;45.60
76172;DHT22;64929;51.178;4.138;2023-02-28T10:37:05;6.50;45.60
76172;DHT22;64929;51.178;4.138;2023-02-28T10:39:44;6.50;44.90
76172;DHT22;64929;51.178;4.138;2023-02-28T10:42:26;6.30;45.30
76172;DHT22;64929;51.178;4.138;2023-02-28T10:45:14;6.30;45.50
76172;DHT22;64929;51.178;4.138;2023-02-28T10:47:53;6.40;46.00
76172;DHT22;64929;51.178;4.138;2023-02-28T10:50:31;6.60;44.20
76172;DHT22;64929;51.178;4.138;2023-02-28T10:53:28;6.70;44.90
76172;DHT22;64929;51.178;4.138;2023-02-28T10:56:14;6.90;43.50
76172;DHT22;64929;51.178;4.138;2023-02-28T10:58:58;7.10;42.20
76172;DHT22;64929;51.178;4.138;2023-02-28T11:03:56;7.10;42.20
76172;DHT22;64929;51.178;4.138;2023-02-28T11:06:26;7.20;41.90
76172;DHT22;64929;51.178;4.138;2023-02-28T11:08:56;7.20;42.90
76172;DHT22;64929;51.178;4.138;2023-02-28T11:11:25;7.20;41.60
76172;DHT22;64929;51.178;4.138;2023-02-28T11:14:02;7.10;42.40
76172;DHT22;64929;51.178;4.138;2023-02-28T11:16:33;7.20;42.30
76172;DHT22;64929;51.178;4.138;2023-02-28T11:19:00;7.10;40.10
76172;DHT22;64929;51.178;4.138;2023-02-28T11:21:32;7.10;40.80
76172;DHT22;64929;51.178;4.138;2023-02-28T11:24:04;7.10;41.70
76172;DHT22;64929;51.178;4.138;2023-02-28T11:26:42;7.20;41.10
76172;DHT22;64929;51.178;4.138;2023-02-28T11:31:37;7.50;39.10
76172;DHT22;64929;51.178;4.138;2023-02-28T11:34:25;7.50;38.60
76172;DHT22;64929;51.178;4.138;2023-02-28T11:36:52;7.60;38.40
76172;DHT22;64929;51.178;4.138;2023-02-28T11:39:19;7.70;37.80
76172;DHT22;64929;51.178;4.138;2023-02-28T11:42:13;7.90;38.50
76172;DHT22;64929;51.178;4.138;2023-02-28T11:52:39;7.60;37.00
76172;DHT22;64929;51.178;4.138;2023-02-28T12:01:06;8.80;35.20
76172;DHT22;64929;51.178;4.138;2023-02-28T12:06:19;8.60;35.20
76172;DHT22;64929;51.178;4.138;2023-02-28T12:11:55;8.70;34.50
76172;DHT22;64929;51.178;4.138;2023-02-28T12:22:32;8.70;32.70
76172;DHT22;64929;51.178;4.138;2023-02-28T12:25:31;8.40;33.10
76172;DHT22;64929;51.178;4.138;2023-02-28T12:28:01;8.40;34.40
76172;DHT22;64929;51.178;4.138;2023-02-28T12:30:31;8.60;33.50
76172;DHT22;64929;51.178;4.138;2023-02-28T12:33:05;8.80;33.60
76172;DHT22;64929;51.178;4.138;2023-02-28T12:35:37;9.10;31.90
76172;DHT22;64929;51.178;4.138;2023-02-28T12:38:10;9.30;31.80
76172;DHT22;64929;51.178;4.138;2023-02-28T12:43:18;9.60;31.50
76172;DHT22;64929;51.178;4.138;2023-02-28T12:51:03;10.40;30.80
76172;DHT22;64929;51.178;4.138;2023-02-28T12:56:13;10.70;29.20
76172;DHT22;64929;51.178;4.138;2023-02-28T12:58:48;10.40;29.60
76172;DHT22;64929;51.178;4.138;2023-02-28T13:04:17;9.80;30.70
76172;DHT22;64929;51.178;4.138;2023-02-28T13:09:32;9.00;32.10
76172;DHT22;64929;51.178;4.138;2023-02-28T13:11:58;8.80;33.40
76172;DHT22;64929;51.178;4.138;2023-02-28T13:14:36;8.30;34.00
76172;DHT22;64929;51.178;4.138;2023-02-28T13:22:09;7.90;35.00
76172;DHT22;64929;51.178;4.138;2023-02-28T13:24:51;7.80;35.50
76172;DHT22;64929;51.178;4.138;2023-02-28T13:29:51;7.80;35.00
76172;DHT22;64929;51.178;4.138;2023-02-28T13:32:38;7.80;34.30
76172;DHT22;64929;51.178;4.138;2023-02-28T13:37:32;7.70;34.90
76172;DHT22;64929;51.178;4.138;2023-02-28T13:55:46;7.40;35.40
76172;DHT22;64929;51.178;4.138;2023-02-28T14:06:18;7.30;36.70
76172;DHT22;64929;51.178;4.138;2023-02-28T14:11:34;7.30;36.30
76172;DHT22;64929;51.178;4.138;2023-02-28T14:14:01;7.40;36.90
76172;DHT22;64929;51.178;4.138;2023-02-28T14:16:44;7.30;36.20
76172;DHT22;64929;51.178;4.138;2023-02-28T14:19:24;7.10;36.60
76172;DHT22;64929;51.178;4.138;2023-02-28T14:27:38;7.20;35.90
76172;DHT22;64929;51.178;4.138;2023-02-28T14:30:39;7.30;36.60
76172;DHT22;64929;51.178;4.138;2023-02-28T14:33:14;7.30;37.10
76172;DHT22;64929;51.178;4.138;2023-02-28T14:38:50;7.30;37.00
76172;DHT22;64929;51.178;4.138;2023-02-28T14:41:36;7.50;36.70
76172;DHT22;64929;51.178;4.138;2023-02-28T14:46:41;7.80;36.50
76172;DHT22;64929;51.178;4.138;2023-02-28T14:49:27;7.70;37.20
76172;DHT22;64929;51.178;4.138;2023-02-28T14:52:13;7.70;37.30
76172;DHT22;64929;51.178;4.138;2023-02-28T14:54:41;7.60;37.30
76172;DHT22;64929;51.178;4.138;2023-02-28T14:57:30;7.50;37.00
76172;DHT22;64929;51.178;4.138;2023-02-28T15:00:20;7.50;36.90
76172;DHT22;64929;51.178;4.138;2023-02-28T15:02:46;7.60;37.10
76172;DHT22;64929;51.178;4.138;2023-02-28T15:07:37;8.00;35.80
76172;DHT22;64929;51.178;4.138;2023-02-28T15:10:24;8.50;35.50
76172;DHT22;64929;51.178;4.138;2023-02-28T15:12:54;9.10;33.50
76172;DHT22;64929;51.178;4.138;2023-02-28T15:15:22;9.80;33.20
76172;DHT22;64929;51.178;4.138;2023-02-28T15:17:55;9.90;32.50
76172;DHT22;64929;51.178;4.138;2023-02-28T15:20:26;9.80;33.10
76172;DHT22;64929;51.178;4.138;2023-02-28T15:22:53;9.70;32.70
76172;DHT22;64929;51.178;4.138;2023-02-28T15:25:21;9.80;32.90
76172;DHT22;64929;51.178;4.138;2023-02-28T15:27:50;9.70;33.40
76172;DHT22;64929;51.178;4.138;2023-02-28T15:30:24;9.50;33.00
76172;DHT22;64929;51.178;4.138;2023-02-28T15:35:31;9.50;33.50
76172;DHT22;64929;51.178;4.138;2023-02-28T15:38:02;9.90;33.70
76172;DHT22;64929;51.178;4.138;2023-02-28T15:40:29;10.10;32.90
76172;DHT22;64929;51.178;4.138;2023-02-28T15:45:44;10.00;33.60
76172;DHT22;64929;51.178;4.138;2023-02-28T15:50:41;9.30;34.10
76172;DHT22;64929;51.178;4.138;2023-02-28T15:53:13;8.90;35.20
76172;DHT22;64929;51.178;4.138;2023-02-28T15:55:39;8.90;35.40
76172;DHT22;64929;51.178;4.138;2023-02-28T15:58:05;8.70;36.10
76172;DHT22;64929;51.178;4.138;2023-02-28T16:00:32;8.80;35.00
76172;DHT22;64929;51.178;4.138;2023-02-28T16:03:00;8.60;35.60
76172;DHT22;64929;51.178;4.138;2023-02-28T16:05:28;8.60;36.70
76172;DHT22;64929;51.178;4.138;2023-02-28T16:08:11;8.30;35.70
76172;DHT22;64929;51.178;4.138;2023-02-28T16:10:37;8.20;36.70
76172;DHT22;64929;51.178;4.138;2023-02-28T16:13:03;8.50;36.30
76172;DHT22;64929;51.178;4.138;2023-02-28T16:15:38;8.70;36.70
76172;DHT22;64929;51.178;4.138;2023-02-28T16:18:12;8.50;36.80
76172;DHT22;64929;51.178;4.138;2023-02-28T16:20:38;8.40;36.60
76172;DHT22;64929;51.178;4.138;2023-02-28T16:23:04;8.10;37.60
76172;DHT22;64929;51.178;4.138;2023-02-28T16:25:36;7.80;37.30
76172;DHT22;64929;51.178;4.138;2023-02-28T16:28:03;7.80;37.70
76172;DHT22;64929;51.178;4.138;2023-02-28T16:30:29;7.60;38.40
76172;DHT22;64929;51.178;4.138;2023-02-28T16:32:57;7.80;38.20
76172;DHT22;64929;51.178;4.138;2023-02-28T16:35:23;7.80;37.80
76172;DHT22;64929;51.178;4.138;2023-02-28T16:37:52;7.70;38.00
76172;DHT22;64929;51.178;4.138;2023-02-28T16:40:21;7.90;38.40
76172;DHT22;64929;51.178;4.138;2023-02-28T16:42:50;7.80;37.70
76172;DHT22;64929;51.178;4.138;2023-02-28T16:45:28;7.70;38.60
76172;DHT22;64929;51.178;4.138;2023-02-28T16:47:54;7.60;38.70
76172;DHT22;64929;51.178;4.138;2023-02-28T16:50:25;7.50;39.50
76172;DHT22;64929;51.178;4.138;2023-02-28T16:52:51;7.30;39.30
76172;DHT22;64929;51.178;4.138;2023-02-28T16:55:17;7.10;40.40
76172;DHT22;64929;51.178;4.138;2023-02-28T16:57:43;7.00;40.40
76172;DHT22;64929;51.178;4.138;2023-02-28T17:00:14;7.10;39.20
76172;DHT22;64929;51.178;4.138;2023-02-28T17:02:39;6.90;39.70
76172;DHT22;64929;51.178;4.138;2023-02-28T17:05:05;6.80;39.90
76172;DHT22;64929;51.178;4.138;2023-02-28T17:07:32;6.70;41.10
76172;DHT22;64929;51.178;4.138;2023-02-28T17:09:58;6.70;40.20
76172;DHT22;64929;51.178;4.138;2023-02-28T17:12:25;6.60;40.20
76172;DHT22;64929;51.178;4.138;2023-02-28T17:14:51;6.50;41.20
76172;DHT22;64929;51.178;4.138;2023-02-28T17:17:20;6.40;41.60
76172;DHT22;64929;51.178;4.138;2023-02-28T17:19:47;6.50;41.00
76172;DHT22;64929;51.178;4.138;2023-02-28T17:22:12;6.50;41.90
76172;DHT22;64929;51.178;4.138;2023-02-28T17:24:38;6.60;41.50
76172;DHT22;64929;51.178;4.138;2023-02-28T17:27:04;6.60;41.20
76172;DHT22;64929;51.178;4.138;2023-02-28T17:29:29;6.50;41.70
76172;DHT22;64929;51.178;4.138;2023-02-28T17:31:55;6.40;41.60
76172;DHT22;64929;51.178;4.138;2023-02-28T17:34:21;6.50;42.00
76172;DHT22;64929;51.178;4.138;2023-02-28T17:36:49;6.30;42.80
76172;DHT22;64929;51.178;4.138;2023-02-28T17:39:17;6.30;42.80
76172;DHT22;64929;51.178;4.138;2023-02-28T17:41:51;6.40;42.50
76172;DHT22;64929;51.178;4.138;2023-02-28T17:44:17;6.40;42.70
76172;DHT22;64929;51.178;4.138;2023-02-28T17:46:43;6.30;42.90
76172;DHT22;64929;51.178;4.138;2023-02-28T17:49:10;6.30;43.90
76172;DHT22;64929;51.178;4.138;2023-02-28T17:51:36;6.30;43.60
76172;DHT22;64929;51.178;4.138;2023-02-28T17:54:01;6.20;43.40
76172;DHT22;64929;51.178;4.138;2023-02-28T17:56:27;6.10;43.70
76172;DHT22;64929;51.178;4.138;2023-02-28T17:58:54;6.10;43.70
76172;DHT22;64929;51.178;4.138;2023-02-28T18:01:21;6.10;44.40
76172;DHT22;64929;51.178;4.138;2023-02-28T18:03:48;5.90;45.00
76172;DHT22;64929;51.178;4.138;2023-02-28T18:06:38;5.90;45.00
76172;DHT22;64929;51.178;4.138;2023-02-28T18:09:20;5.70;45.40
76172;DHT22;64929;51.178;4.138;2023-02-28T18:11:50;5.70;45.90
76172;DHT22;64929;51.178;4.138;2023-02-28T18:14:18;5.80;45.40
76172;DHT22;64929;51.178;4.138;2023-02-28T18:16:45;5.70;45.50
76172;DHT22;64929;51.178;4.138;2023-02-28T18:19:12;5.70;45.90
76172;DHT22;64929;51.178;4.138;2023-02-28T18:21:43;5.70;45.70
76172;DHT22;64929;51.178;4.138;2023-02-28T18:24:09;5.60;46.00
76172;DHT22;64929;51.178;4.138;2023-02-28T18:26:36;5.60;46.20